Time;durP1;ratioP1;P1;durP2;ratioP2;P2;SDS_P1;SDS_P2;PMS_P1;PMS_P2;Temp;Humidity;BMP_temperature;BMP_pressure;BME280_temperature;BME280_humidity;BME280_pressure;Samples;Min_cycle;Max_cycle;Signal;HPM_P1;HPM_P2
2023/09/04 00:02:13;;;;;;;3.45;2.90;;;;;;;;;;5058666;28;20111;-67
2023/09/04 00:04:39;;;;;;;3.67;3.05;;;;;;;;;;5070296;28;20115;-67
2023/09/04 00:07:05;;;;;;;3.83;3.08;;;;;;;;;;5071096;28;20036;-67
2023/09/04 00:09:31;;;;;;;3.47;2.22;;;;;;;;;;5071828;28;20040;-67
2023/09/04 00:11:57;;;;;;;3.70;3.40;;;;;;;;;;5071750;28;20044;-67
2023/09/04 00:14:23;;;;;;;4.75;4.25;;;;;;;;;;5071631;28;20040;-67
2023/09/04 00:16:49;;;;;;;4.10;3.80;;;;;;;;;;5070733;28;20089;-67
2023/09/04 00:19:15;;;;;;;4.13;3.60;;;;;;;;;;5054523;28;20045;-67
2023/09/04 00:21:41;;;;;;;2.67;2.47;;;;;;;;;;5067000;28;20093;-67
2023/09/04 00:24:07;;;;;;;2.88;2.60;;;;;;;;;;5070035;28;20040;-67
2023/09/04 00:26:33;;;;;;;3.40;3.10;;;;;;;;;;5065973;28;20068;-67
2023/09/04 00:28:59;;;;;;;4.95;4.45;;;;;;;;;;5063456;28;20073;-67
2023/09/04 00:31:25;;;;;;;4.03;3.63;;;;;;;;;;5067086;28;20451;-67
2023/09/04 00:33:51;;;;;;;7.60;3.80;;;;;;;;;;5062582;28;20043;-67
2023/09/04 00:36:17;;;;;;;4.97;4.47;;;;;;;;;;5052143;28;20048;-67
2023/09/04 00:38:43;;;;;;;5.45;3.80;;;;;;;;;;5071300;28;20058;-67
2023/09/04 00:41:09;;;;;;;4.60;4.20;;;;;;;;;;5071424;28;20051;-67
2023/09/04 00:43:38;;;;;;;6.88;4.20;;;;;;;;;;5066640;28;20106;-67
2023/09/04 00:46:06;;;;;;;4.28;3.88;;;;;;;;;;5070412;28;20504;-67
2023/09/04 00:48:32;;;;;;;4.15;3.50;;;;;;;;;;5062521;28;20131;-67
2023/09/04 00:50:58;;;;;;;3.35;3.05;;;;;;;;;;5073694;22;20040;-67
2023/09/04 00:53:26;;;;;;;3.42;3.13;;;;;;;;;;5090280;28;20078;-67
2023/09/04 00:55:52;;;;;;;5.43;4.25;;;;;;;;;;5090891;28;20040;-67
2023/09/04 00:58:18;;;;;;;4.22;3.65;;;;;;;;;;5093995;28;20043;-67
2023/09/04 01:00:44;;;;;;;4.53;4.10;;;;;;;;;;5085436;28;20032;-67
2023/09/04 01:03:12;;;;;;;4.60;4.20;;;;;;;;;;5094775;28;20036;-67
2023/09/04 01:05:38;;;;;;;3.55;3.25;;;;;;;;;;5092813;28;20111;-67
2023/09/04 01:08:04;;;;;;;4.25;3.65;;;;;;;;;;5095893;28;20067;-67
2023/09/04 01:10:42;;;;;;;3.22;2.92;;;;;;;;;;5094973;28;20051;-67
2023/09/04 01:13:12;;;;;;;3.15;2.85;;;;;;;;;;5092816;28;20096;-67
2023/09/04 01:15:38;;;;;;;2.83;2.22;;;;;;;;;;5092723;28;20482;-67
2023/09/04 01:18:04;;;;;;;2.88;2.58;;;;;;;;;;5094415;28;20074;-67
2023/09/04 01:20:32;;;;;;;3.13;2.63;;;;;;;;;;5094302;28;20051;-67
2023/09/04 01:22:58;;;;;;;39.67;4.00;;;;;;;;;;5087087;28;20043;-67
2023/09/04 01:25:33;;;;;;;2.40;2.20;;;;;;;;;;5093479;28;20036;-67
2023/09/04 01:28:05;;;;;;;1.75;1.65;;;;;;;;;;5093680;28;20085;-67
2023/09/04 01:30:43;;;;;;;3.15;2.13;;;;;;;;;;5094026;28;20040;-67
2023/09/04 01:33:10;;;;;;;2.50;2.30;;;;;;;;;;5092382;28;20511;-67
2023/09/04 01:35:37;;;;;;;2.97;2.50;;;;;;;;;;5094812;28;20044;-67
2023/09/04 01:38:03;;;;;;;3.05;2.33;;;;;;;;;;5094889;28;20114;-67
2023/09/04 01:40:29;;;;;;;2.63;2.25;;;;;;;;;;5092524;28;20121;-67
2023/09/04 01:42:55;;;;;;;2.35;2.15;;;;;;;;;;5094442;28;20494;-67
2023/09/04 01:45:21;;;;;;;2.83;2.30;;;;;;;;;;5092392;28;20058;-67
2023/09/04 01:47:47;;;;;;;2.45;1.70;;;;;;;;;;5094915;28;20055;-67
2023/09/04 01:50:13;;;;;;;2.83;1.83;;;;;;;;;;5094048;28;20067;-67
2023/09/04 01:52:39;;;;;;;2.20;2.00;;;;;;;;;;5094070;28;20043;-67
2023/09/04 01:55:05;;;;;;;2.28;2.08;;;;;;;;;;5092517;28;20039;-67
2023/09/04 01:57:31;;;;;;;2.67;2.20;;;;;;;;;;5093634;28;20439;-67
2023/09/04 01:59:57;;;;;;;2.85;2.55;;;;;;;;;;5094290;28;20393;-67
2023/09/04 02:02:23;;;;;;;12.35;3.08;;;;;;;;;;5097543;28;20036;-67
2023/09/04 02:04:49;;;;;;;9.02;2.53;;;;;;;;;;5091060;28;20036;-67
2023/09/04 02:07:16;;;;;;;3.25;2.95;;;;;;;;;;5093582;28;20043;-67
2023/09/04 02:09:42;;;;;;;3.53;2.60;;;;;;;;;;5093788;28;20044;-67
2023/09/04 02:12:08;;;;;;;3.50;2.85;;;;;;;;;;5092185;28;20070;-67
2023/09/04 02:14:34;;;;;;;3.10;2.80;;;;;;;;;;5093234;28;20115;-67
2023/09/04 02:17:00;;;;;;;2.40;2.20;;;;;;;;;;5093848;28;20512;-67
2023/09/04 02:19:26;;;;;;;2.70;2.50;;;;;;;;;;5092231;28;20040;-67
2023/09/04 02:21:52;;;;;;;3.30;2.80;;;;;;;;;;5093422;28;20481;-67
2023/09/04 02:24:18;;;;;;;2.83;2.60;;;;;;;;;;5092768;28;20039;-67
2023/09/04 02:26:44;;;;;;;3.42;3.13;;;;;;;;;;5093413;28;20071;-67
2023/09/04 02:29:10;;;;;;;2.67;2.47;;;;;;;;;;5093660;28;20040;-67
2023/09/04 02:31:36;;;;;;;3.83;3.08;;;;;;;;;;5092747;28;20036;-68
2023/09/04 02:34:02;;;;;;;3.42;2.92;;;;;;;;;;5091878;28;20036;-67
2023/09/04 02:36:28;;;;;;;3.75;2.67;;;;;;;;;;5093561;28;20459;-67
2023/09/04 02:38:55;;;;;;;3.92;3.58;;;;;;;;;;5093670;28;20048;-67
2023/09/04 02:41:21;;;;;;;3.25;2.70;;;;;;;;;;5092658;28;20123;-67
2023/09/04 02:43:47;;;;;;;4.28;3.50;;;;;;;;;;5090663;28;20114;-67
2023/09/04 02:46:13;;;;;;;3.20;2.90;;;;;;;;;;5093338;28;20401;-67
2023/09/04 02:48:39;;;;;;;3.40;2.72;;;;;;;;;;5093570;28;20553;-67
2023/09/04 02:51:06;;;;;;;6.55;3.25;;;;;;;;;;5089125;28;20123;-67
2023/09/04 02:53:32;;;;;;;3.55;2.85;;;;;;;;;;5090956;28;20189;-67
2023/09/04 02:55:59;;;;;;;3.78;2.97;;;;;;;;;;5090681;28;20557;-67
2023/09/04 02:58:25;;;;;;;2.20;2.00;;;;;;;;;;5092517;28;20059;-67
2023/09/04 03:00:51;;;;;;;2.80;2.40;;;;;;;;;;5084712;28;20036;-66
2023/09/04 03:03:19;;;;;;;3.20;2.90;;;;;;;;;;5090518;28;20069;-67
2023/09/04 03:05:46;;;;;;;3.00;2.70;;;;;;;;;;5091628;28;20035;-67
2023/09/04 03:08:12;;;;;;;4.00;3.35;;;;;;;;;;5091672;28;20119;-67
2023/09/04 03:10:38;;;;;;;4.95;4.05;;;;;;;;;;5092259;28;20036;-67
2023/09/04 03:13:04;;;;;;;3.55;3.25;;;;;;;;;;5092216;28;20519;-67
2023/09/04 03:15:30;;;;;;;3.92;3.47;;;;;;;;;;5088142;28;20048;-67
2023/09/04 03:17:56;;;;;;;4.88;3.42;;;;;;;;;;5085908;28;20070;-67
2023/09/04 03:20:22;;;;;;;11.38;3.33;;;;;;;;;;5090698;28;20127;-67
2023/09/04 03:22:48;;;;;;;4.82;3.47;;;;;;;;;;5092191;28;20050;-67
2023/09/04 03:25:14;;;;;;;11.00;2.80;;;;;;;;;;5092361;28;20032;-66
2023/09/04 03:27:40;;;;;;;2.65;2.45;;;;;;;;;;5092230;28;20043;-67
2023/09/04 03:30:07;;;;;;;2.50;2.30;;;;;;;;;;5084053;28;20036;-67
2023/09/04 03:32:33;;;;;;;2.88;2.67;;;;;;;;;;5090645;28;20040;-67
2023/09/04 03:34:59;;;;;;;3.45;3.15;;;;;;;;;;5091625;28;20055;-67
2023/09/04 03:37:25;;;;;;;10.02;3.40;;;;;;;;;;5091937;28;20203;-68
2023/09/04 03:39:51;;;;;;;3.28;2.08;;;;;;;;;;5089893;28;20040;-67
2023/09/04 03:42:17;;;;;;;13.55;3.10;;;;;;;;;;5083042;28;20170;-67
2023/09/04 03:44:43;;;;;;;3.50;2.30;;;;;;;;;;5071339;28;20064;-67
2023/09/04 03:47:10;;;;;;;2.10;1.90;;;;;;;;;;5087581;28;20489;-67
2023/09/04 03:49:36;;;;;;;2.38;1.90;;;;;;;;;;5081937;28;20062;-67
2023/09/04 03:52:02;;;;;;;2.25;1.80;;;;;;;;;;5054683;28;1039940;-67
2023/09/04 03:54:29;;;;;;;3.22;2.35;;;;;;;;;;5092332;28;20105;-67
2023/09/04 03:56:55;;;;;;;5.97;2.30;;;;;;;;;;5092414;28;20131;-67
2023/09/04 03:59:21;;;;;;;3.17;2.08;;;;;;;;;;5092058;28;20040;-67
2023/09/04 04:01:47;;;;;;;13.70;3.22;;;;;;;;;;5094879;28;20032;-67
2023/09/04 04:04:13;;;;;;;3.40;2.65;;;;;;;;;;5098359;28;20119;-67
2023/09/04 04:06:39;;;;;;;3.20;2.58;;;;;;;;;;5090122;28;20043;-67
2023/09/04 04:09:06;;;;;;;3.50;3.05;;;;;;;;;;5090401;28;20397;-67
2023/09/04 04:11:33;;;;;;;4.13;3.35;;;;;;;;;;5091125;28;20048;-67
2023/09/04 04:13:59;;;;;;;4.22;3.15;;;;;;;;;;5091913;28;20048;-67
2023/09/04 04:16:25;;;;;;;4.28;3.00;;;;;;;;;;5092023;28;20036;-67
2023/09/04 04:18:51;;;;;;;3.95;3.55;;;;;;;;;;5092129;28;20435;-67
2023/09/04 04:21:17;;;;;;;4.32;3.80;;;;;;;;;;5092054;28;20051;-67
2023/09/04 04:23:43;;;;;;;3.90;3.40;;;;;;;;;;5091904;28;20412;-67
2023/09/04 04:26:09;;;;;;;3.90;3.25;;;;;;;;;;5091260;28;20040;-67
2023/09/04 04:28:35;;;;;;;4.25;3.75;;;;;;;;;;5092001;28;20040;-67
2023/09/04 04:31:02;;;;;;;4.72;3.13;;;;;;;;;;5086436;28;20047;-68
2023/09/04 04:33:28;;;;;;;6.47;3.33;;;;;;;;;;5081863;28;20060;-67
2023/09/04 04:35:54;;;;;;;4.53;3.80;;;;;;;;;;5091700;28;20055;-67
2023/09/04 04:38:20;;;;;;;3.40;3.10;;;;;;;;;;5090743;28;20051;-67
2023/09/04 04:40:46;;;;;;;4.35;3.72;;;;;;;;;;5091673;28;20032;-67
2023/09/04 04:43:13;;;;;;;3.85;2.58;;;;;;;;;;5091170;28;20032;-67
2023/09/04 04:45:39;;;;;;;3.80;3.38;;;;;;;;;;5082544;28;20044;-67
2023/09/04 04:48:05;;;;;;;4.60;3.63;;;;;;;;;;5091497;28;20730;-67
2023/09/04 04:50:31;;;;;;;4.05;3.72;;;;;;;;;;5091522;28;20497;-67
2023/09/04 04:52:57;;;;;;;9.70;4.40;;;;;;;;;;5091738;28;20047;-67
2023/09/04 04:55:23;;;;;;;6.18;4.65;;;;;;;;;;5091719;28;20035;-67
2023/09/04 04:57:49;;;;;;;4.78;3.42;;;;;;;;;;5091701;28;20119;-67
2023/09/04 05:00:15;;;;;;;3.30;3.00;;;;;;;;;;5090229;28;20040;-67
2023/09/04 05:02:42;;;;;;;3.17;2.30;;;;;;;;;;5082913;28;20408;-67
2023/09/04 05:05:08;;;;;;;8.05;3.40;;;;;;;;;;5090470;28;20114;-67
2023/09/04 05:07:34;;;;;;;3.25;2.95;;;;;;;;;;5091543;28;20490;-67
2023/09/04 05:10:00;;;;;;;14.10;3.75;;;;;;;;;;5091541;28;20051;-67
2023/09/04 05:12:26;;;;;;;3.47;3.08;;;;;;;;;;5091324;28;20051;-67
2023/09/04 05:14:52;;;;;;;4.30;3.20;;;;;;;;;;5091147;28;20707;-67
2023/09/04 05:17:18;;;;;;;4.68;3.75;;;;;;;;;;5089083;28;20441;-67
2023/09/04 05:19:44;;;;;;;4.85;3.90;;;;;;;;;;5082467;28;20040;-67
2023/09/04 05:22:10;;;;;;;4.30;3.90;;;;;;;;;;5091550;28;20500;-67
2023/09/04 05:24:36;;;;;;;5.20;4.70;;;;;;;;;;5090882;28;20040;-67
2023/09/04 05:27:03;;;;;;;5.43;4.63;;;;;;;;;;5084050;28;20447;-67
2023/09/04 05:29:29;;;;;;;4.32;3.92;;;;;;;;;;5089243;28;20088;-67
2023/09/04 05:31:56;;;;;;;7.10;4.55;;;;;;;;;;5091510;28;20040;-67
2023/09/04 05:34:22;;;;;;;4.35;3.95;;;;;;;;;;5074492;28;20045;-66
2023/09/04 05:36:48;;;;;;;6.50;4.07;;;;;;;;;;5090991;28;20070;-67
2023/09/04 05:39:14;;;;;;;4.68;4.18;;;;;;;;;;5091409;28;20040;-67
2023/09/04 05:41:40;;;;;;;4.68;4.22;;;;;;;;;;5090704;28;20044;-66
2023/09/04 05:44:06;;;;;;;5.45;4.72;;;;;;;;;;5094486;28;20511;-66
2023/09/04 05:46:32;;;;;;;5.80;4.55;;;;;;;;;;5094598;28;20084;-67
2023/09/04 05:48:58;;;;;;;6.97;5.28;;;;;;;;;;5092968;28;20039;-66
2023/09/04 05:51:25;;;;;;;5.63;4.93;;;;;;;;;;5084341;28;20047;-67
2023/09/04 05:53:51;;;;;;;7.28;5.00;;;;;;;;;;5092846;28;20176;-66
2023/09/04 05:56:17;;;;;;;7.20;5.88;;;;;;;;;;5094666;28;20097;-67
2023/09/04 05:58:47;;;;;;;8.18;5.82;;;;;;;;;;5094017;28;20040;-67
2023/09/04 06:01:13;;;;;;;8.55;6.45;;;;;;;;;;5094519;28;20109;-67
2023/09/04 06:03:40;;;;;;;7.30;6.07;;;;;;;;;;5090344;28;20043;-66
2023/09/04 06:06:06;;;;;;;8.20;6.18;;;;;;;;;;5092620;28;20032;-66
2023/09/04 06:08:32;;;;;;;10.90;7.18;;;;;;;;;;5093968;28;20055;-66
2023/09/04 06:10:58;;;;;;;9.45;7.72;;;;;;;;;;5094278;28;20073;-66
2023/09/04 06:13:24;;;;;;;9.90;7.68;;;;;;;;;;5089907;28;20040;-66
2023/09/04 06:15:53;;;;;;;11.73;8.07;;;;;;;;;;5088013;28;20512;-66
2023/09/04 06:18:20;;;;;;;11.75;8.27;;;;;;;;;;5093262;28;20116;-66
2023/09/04 06:20:46;;;;;;;10.52;7.60;;;;;;;;;;5093882;28;20508;-66
2023/09/04 06:23:12;;;;;;;10.07;8.18;;;;;;;;;;5093362;28;20370;-66
2023/09/04 06:25:41;;;;;;;12.32;8.95;;;;;;;;;;5092878;28;20269;-66
2023/09/04 06:28:07;;;;;;;9.98;8.18;;;;;;;;;;5091027;28;20486;-66
2023/09/04 06:30:34;;;;;;;11.98;8.73;;;;;;;;;;5093829;28;20052;-66
2023/09/04 06:33:00;;;;;;;15.25;9.45;;;;;;;;;;5085046;28;20032;-66
2023/09/04 06:35:26;;;;;;;13.23;9.38;;;;;;;;;;5073645;28;20475;-66
2023/09/04 06:37:52;;;;;;;14.32;10.50;;;;;;;;;;5073434;28;20041;-66
2023/09/04 06:40:18;;;;;;;15.20;11.00;;;;;;;;;;5072785;28;20127;-66
2023/09/04 06:42:44;;;;;;;13.48;10.18;;;;;;;;;;5079277;28;20127;-66
2023/09/04 06:45:11;;;;;;;14.48;10.02;;;;;;;;;;5091090;28;20051;-66
2023/09/04 06:47:38;;;;;;;14.90;10.55;;;;;;;;;;5093348;28;20034;-66
2023/09/04 06:50:04;;;;;;;13.25;10.25;;;;;;;;;;5092493;28;20040;-66
2023/09/04 06:52:30;;;;;;;15.98;11.02;;;;;;;;;;5092857;22;20079;-68
2023/09/04 06:54:56;;;;;;;15.50;12.07;;;;;;;;;;5070446;28;20064;-68
2023/09/04 06:57:22;;;;;;;20.80;11.77;;;;;;;;;;5070553;28;20093;-67
2023/09/04 06:59:49;;;;;;;17.85;11.38;;;;;;;;;;5069269;28;20044;-67
2023/09/04 07:02:15;;;;;;;15.10;11.70;;;;;;;;;;5055080;28;20111;-68
2023/09/04 07:04:41;;;;;;;16.13;10.93;;;;;;;;;;5063353;28;20047;-67
2023/09/04 07:07:07;;;;;;;17.45;11.90;;;;;;;;;;5071765;28;20467;-67
2023/09/04 07:09:33;;;;;;;17.63;12.60;;;;;;;;;;5067355;28;20068;-67
2023/09/04 07:11:59;;;;;;;16.50;12.20;;;;;;;;;;5070904;28;20123;-67
2023/09/04 07:14:25;;;;;;;16.70;12.38;;;;;;;;;;5062554;28;20040;-67
2023/09/04 07:16:51;;;;;;;15.18;11.82;;;;;;;;;;5071909;28;20040;-68
2023/09/04 07:19:17;;;;;;;17.15;12.65;;;;;;;;;;5072772;28;20039;-68
2023/09/04 07:21:43;;;;;;;19.73;12.82;;;;;;;;;;5072700;28;20076;-68
2023/09/04 07:24:09;;;;;;;17.25;13.20;;;;;;;;;;5062974;28;20095;-68
2023/09/04 07:26:35;;;;;;;17.80;13.05;;;;;;;;;;5071253;28;20037;-68
2023/09/04 07:29:01;;;;;;;15.93;12.50;;;;;;;;;;5064078;28;20501;-68
2023/09/04 07:31:28;;;;;;;15.68;12.32;;;;;;;;;;5072464;28;20044;-68
2023/09/04 07:33:54;;;;;;;10.70;8.93;;;;;;;;;;5070868;28;20059;-68
2023/09/04 07:36:20;;;;;;;14.70;11.52;;;;;;;;;;5068722;28;20485;-68
2023/09/04 07:38:47;;;;;;;13.00;10.57;;;;;;;;;;5044550;28;20047;-68
2023/09/04 07:41:13;;;;;;;11.15;9.60;;;;;;;;;;5070078;28;20131;-68
2023/09/04 07:43:39;;;;;;;15.30;11.25;;;;;;;;;;5065357;28;20056;-68
2023/09/04 07:46:05;;;;;;;13.13;9.93;;;;;;;;;;5072184;28;20040;-68
2023/09/04 07:48:34;;;;;;;12.32;10.07;;;;;;;;;;5072122;28;20083;-68
2023/09/04 07:51:00;;;;;;;12.95;9.65;;;;;;;;;;5057831;28;20049;-68
2023/09/04 07:53:26;;;;;;;14.23;9.77;;;;;;;;;;5071797;28;20064;-68
2023/09/04 07:55:52;;;;;;;9.05;8.10;;;;;;;;;;5071785;28;20044;-68
2023/09/04 07:58:18;;;;;;;13.10;9.52;;;;;;;;;;5071804;28;20033;-67
2023/09/04 08:00:48;;;;;;;11.30;8.63;;;;;;;;;;5072210;28;20044;-68
2023/09/04 08:03:14;;;;;;;8.68;7.70;;;;;;;;;;5071190;28;20513;-68
2023/09/04 08:05:41;;;;;;;9.48;7.10;;;;;;;;;;5069709;28;20038;-68
2023/09/04 08:08:10;;;;;;;8.07;7.13;;;;;;;;;;5069666;28;20033;-68
2023/09/04 08:10:40;;;;;;;8.90;7.10;;;;;;;;;;5067024;28;20517;-69
2023/09/04 08:13:07;;;;;;;7.35;6.57;;;;;;;;;;5067980;28;20061;-68
2023/09/04 08:15:33;;;;;;;7.97;6.10;;;;;;;;;;5071428;28;20119;-69
2023/09/04 08:17:59;;;;;;;7.18;6.47;;;;;;;;;;5071836;28;20048;-68
2023/09/04 08:20:25;;;;;;;8.15;6.38;;;;;;;;;;5071231;28;20402;-68
2023/09/04 08:22:51;;;;;;;6.53;5.85;;;;;;;;;;5071211;28;20036;-68
2023/09/04 08:25:17;;;;;;;7.93;5.78;;;;;;;;;;5058545;28;20491;-68
2023/09/04 08:27:43;;;;;;;5.63;5.13;;;;;;;;;;5071003;28;20033;-68
2023/09/04 08:30:09;;;;;;;7.85;5.30;;;;;;;;;;5068493;28;20052;-68
2023/09/04 08:32:35;;;;;;;5.63;4.72;;;;;;;;;;5061648;28;20078;-70
2023/09/04 08:35:02;;;;;;;4.97;4.47;;;;;;;;;;5068198;28;20041;-70
2023/09/04 08:37:28;;;;;;;5.18;4.50;;;;;;;;;;5052384;28;20489;-70
2023/09/04 08:39:54;;;;;;;5.93;4.88;;;;;;;;;;5049809;28;20525;-68
2023/09/04 08:42:21;;;;;;;5.78;4.85;;;;;;;;;;5069655;28;20058;-68
2023/09/04 08:44:49;;;;;;;4.47;4.00;;;;;;;;;;5070339;28;20174;-69
2023/09/04 08:47:16;;;;;;;5.10;4.32;;;;;;;;;;5069226;28;20086;-69
2023/09/04 08:49:42;;;;;;;6.18;4.45;;;;;;;;;;5060564;28;20165;-68
2023/09/04 08:52:09;;;;;;;5.30;4.10;;;;;;;;;;5070720;28;20498;-68
2023/09/04 08:54:35;;;;;;;6.05;4.07;;;;;;;;;;5070936;28;20051;-68
2023/09/04 08:57:01;;;;;;;9.52;4.13;;;;;;;;;;5071287;28;20041;-69
2023/09/04 08:59:27;;;;;;;5.28;3.97;;;;;;;;;;5071302;28;20074;-69
2023/09/04 09:01:54;;;;;;;4.82;3.85;;;;;;;;;;5068982;28;20025;-69
2023/09/04 09:04:21;;;;;;;4.85;3.78;;;;;;;;;;5074034;28;20040;-69
2023/09/04 09:06:48;;;;;;;5.40;3.67;;;;;;;;;;5070737;28;20040;-69
2023/09/04 09:09:15;;;;;;;5.15;3.70;;;;;;;;;;5072348;28;20047;-68
2023/09/04 09:11:42;;;;;;;5.20;3.42;;;;;;;;;;5062517;28;20071;-68
2023/09/04 09:14:09;;;;;;;4.10;3.22;;;;;;;;;;5065680;28;20119;-68
2023/09/04 09:16:35;;;;;;;4.88;3.65;;;;;;;;;;5071050;28;20089;-68
2023/09/04 09:19:02;;;;;;;4.63;3.10;;;;;;;;;;5072204;28;20036;-68
2023/09/04 09:21:29;;;;;;;5.28;2.92;;;;;;;;;;5075015;28;20058;-68
2023/09/04 09:24:08;;;;;;;3.97;3.33;;;;;;;;;;5074808;28;20041;-68
2023/09/04 09:26:34;;;;;;;4.75;3.10;;;;;;;;;;5074166;28;20040;-67
2023/09/04 09:29:06;;;;;;;3.20;2.90;;;;;;;;;;5074467;28;20124;-67
2023/09/04 09:31:33;;;;;;;4.35;3.00;;;;;;;;;;5074691;28;20044;-67
2023/09/04 09:33:59;;;;;;;5.72;3.42;;;;;;;;;;5061572;28;20586;-67
2023/09/04 09:36:25;;;;;;;4.68;3.65;;;;;;;;;;5068219;28;20041;-66
2023/09/04 09:38:54;;;;;;;4.50;3.20;;;;;;;;;;5074508;28;20044;-67
2023/09/04 09:41:20;;;;;;;5.25;3.38;;;;;;;;;;5090201;28;20039;-67
2023/09/04 09:43:46;;;;;;;4.60;3.10;;;;;;;;;;5073099;28;20081;-67
2023/09/04 09:46:16;;;;;;;5.43;3.33;;;;;;;;;;5071957;28;20044;-67
2023/09/04 09:48:43;;;;;;;4.90;3.50;;;;;;;;;;5070200;28;20450;-67
2023/09/04 09:51:10;;;;;;;3.70;2.95;;;;;;;;;;5050797;28;20080;-67
2023/09/04 09:53:45;;;;;;;3.42;3.00;;;;;;;;;;5072869;28;20083;-66
2023/09/04 09:56:12;;;;;;;5.15;3.28;;;;;;;;;;5073989;28;20040;-67
2023/09/04 09:58:39;;;;;;;3.63;3.03;;;;;;;;;;5063387;28;20498;-67
2023/09/04 10:01:06;;;;;;;7.50;3.30;;;;;;;;;;5070070;28;20124;-67
2023/09/04 10:03:33;;;;;;;4.43;3.00;;;;;;;;;;5073989;28;20054;-67
2023/09/04 10:06:01;;;;;;;4.80;2.78;;;;;;;;;;5074013;28;20039;-68
2023/09/04 10:08:27;;;;;;;3.38;2.78;;;;;;;;;;5071946;28;20049;-67
2023/09/04 10:10:54;;;;;;;3.10;2.78;;;;;;;;;;5077429;28;20037;-68
2023/09/04 10:13:23;;;;;;;4.03;2.88;;;;;;;;;;5071206;28;20095;-67
2023/09/04 10:15:51;;;;;;;5.28;2.60;;;;;;;;;;5071778;28;20089;-67
2023/09/04 10:18:22;;;;;;;3.22;2.38;;;;;;;;;;5073780;28;20072;-67
2023/09/04 10:20:49;;;;;;;4.10;2.70;;;;;;;;;;5073665;28;20475;-67
2023/09/04 10:23:16;;;;;;;5.70;2.85;;;;;;;;;;5064489;28;20047;-67
2023/09/04 10:25:45;;;;;;;6.25;2.72;;;;;;;;;;5072720;28;20040;-67
2023/09/04 10:28:19;;;;;;;2.78;2.42;;;;;;;;;;5070057;28;20036;-67
2023/09/04 10:30:49;;;;;;;4.53;2.55;;;;;;;;;;5069523;28;20040;-68
2023/09/04 10:33:15;;;;;;;2.70;2.50;;;;;;;;;;5063327;28;20051;-68
2023/09/04 10:35:42;;;;;;;6.47;2.60;;;;;;;;;;5064662;28;20036;-68
2023/09/04 10:38:08;;;;;;;3.40;2.60;;;;;;;;;;5062817;28;20502;-67
2023/09/04 10:40:35;;;;;;;4.07;2.72;;;;;;;;;;5064720;28;20098;-67
2023/09/04 10:43:03;;;;;;;3.45;2.63;;;;;;;;;;5072053;28;20071;-67
2023/09/04 10:45:30;;;;;;;3.63;2.88;;;;;;;;;;5070767;28;20076;-67
2023/09/04 10:47:56;;;;;;;2.67;2.40;;;;;;;;;;5054048;28;20432;-67
2023/09/04 10:50:28;;;;;;;2.65;2.25;;;;;;;;;;5070435;28;20094;-67
2023/09/04 10:52:55;;;;;;;3.10;2.30;;;;;;;;;;5066052;28;20069;-67
2023/09/04 10:55:21;;;;;;;4.70;2.50;;;;;;;;;;5071797;28;20552;-67
2023/09/04 10:57:56;;;;;;;4.65;2.60;;;;;;;;;;5073417;28;20383;-67
2023/09/04 11:00:27;;;;;;;4.38;2.70;;;;;;;;;;5072631;28;20048;-67
2023/09/04 11:02:53;;;;;;;;;;;;;;;;;;5071719;28;20086;-67
2023/09/04 11:05:19;;;;;;;4.25;2.25;;;;;;;;;;5067754;28;19917;-67
2023/09/04 11:07:45;;;;;;;4.30;2.70;;;;;;;;;;5065352;28;20063;-68
2023/09/04 11:10:13;;;;;;;4.13;2.40;;;;;;;;;;5055228;28;20545;-67
2023/09/04 11:12:39;;;;;;;3.50;2.25;;;;;;;;;;5052901;28;20117;-67
2023/09/04 11:15:15;;;;;;;3.47;2.15;;;;;;;;;;5059767;28;20053;-67
2023/09/04 11:17:44;;;;;;;5.40;2.30;;;;;;;;;;5063863;28;20115;-67
2023/09/04 11:20:14;;;;;;;3.28;2.30;;;;;;;;;;5064436;28;20051;-67
2023/09/04 11:22:40;;;;;;;3.33;2.08;;;;;;;;;;5063026;28;20044;-67
2023/09/04 11:25:06;;;;;;;2.53;2.20;;;;;;;;;;5054989;28;20444;-67
2023/09/04 11:27:32;;;;;;;2.30;1.73;;;;;;;;;;5062855;28;20045;-68
2023/09/04 11:30:01;;;;;;;3.40;1.90;;;;;;;;;;5072508;28;20667;-67
2023/09/04 11:32:27;;;;;;;4.63;2.03;;;;;;;;;;5063546;28;20083;-67
2023/09/04 11:34:53;;;;;;;4.45;1.63;;;;;;;;;;5071472;28;20063;-68
2023/09/04 11:37:19;;;;;;;3.97;1.98;;;;;;;;;;5072245;28;20454;-67
2023/09/04 11:39:58;;;;;;;2.15;1.80;;;;;;;;;;5070333;28;20045;-68
2023/09/04 11:42:25;;;;;;;3.20;1.83;;;;;;;;;;5071124;28;20040;-68
2023/09/04 11:44:51;;;;;;;2.75;2.15;;;;;;;;;;5071399;28;20041;-67
2023/09/04 11:47:17;;;;;;;4.38;2.00;;;;;;;;;;5047703;28;20032;-67
2023/09/04 11:49:43;;;;;;;2.50;1.85;;;;;;;;;;5068993;28;20492;-68
2023/09/04 11:52:10;;;;;;;2.28;1.85;;;;;;;;;;5067846;28;20043;-67
2023/09/04 11:54:36;;;;;;;2.55;1.90;;;;;;;;;;5053729;28;20036;-68
2023/09/04 11:57:05;;;;;;;2.78;1.80;;;;;;;;;;5053642;28;20048;-68
2023/09/04 11:59:35;;;;;;;2.83;1.98;;;;;;;;;;5071359;28;20086;-68
2023/09/04 12:02:02;;;;;;;2.63;1.70;;;;;;;;;;5067938;28;20041;-68
2023/09/04 12:04:29;;;;;;;2.80;2.00;;;;;;;;;;5062868;28;20044;-68
2023/09/04 12:06:55;;;;;;;3.38;1.77;;;;;;;;;;5065465;28;20539;-68
2023/09/04 12:09:21;;;;;;;3.65;2.00;;;;;;;;;;5071900;28;20044;-68
2023/09/04 12:11:47;;;;;;;2.75;1.70;;;;;;;;;;5062295;28;20040;-68
2023/09/04 12:14:13;;;;;;;2.08;1.70;;;;;;;;;;5069677;28;20464;-68
2023/09/04 12:16:39;;;;;;;2.10;1.83;;;;;;;;;;5071539;28;20067;-68
2023/09/04 12:19:06;;;;;;;3.75;1.77;;;;;;;;;;5070189;28;20041;-64
2023/09/04 12:21:32;;;;;;;2.85;1.70;;;;;;;;;;5060193;28;20190;-64
2023/09/04 12:23:58;;;;;;;2.22;1.42;;;;;;;;;;5069653;28;20056;-64
2023/09/04 12:26:24;;;;;;;2.97;1.75;;;;;;;;;;5069841;28;20044;-64
2023/09/04 12:28:52;;;;;;;1.80;1.65;;;;;;;;;;5069185;28;20059;-64
2023/09/04 12:31:20;;;;;;;2.30;1.50;;;;;;;;;;5061397;28;20041;-65
2023/09/04 12:33:47;;;;;;;3.90;1.60;;;;;;;;;;5055869;28;20045;-64
2023/09/04 12:36:14;;;;;;;2.92;2.05;;;;;;;;;;5042080;28;20140;-64
2023/09/04 12:38:40;;;;;;;1.92;1.33;;;;;;;;;;5069724;28;20051;-64
2023/09/04 12:41:07;;;;;;;1.63;1.50;;;;;;;;;;5071181;28;20044;-64
2023/09/04 12:43:33;;;;;;;1.67;1.30;;;;;;;;;;5069406;28;20044;-64
2023/09/04 12:45:59;;;;;;;6.00;1.80;;;;;;;;;;5071338;28;20035;-64
2023/09/04 12:48:25;;;;;;;4.35;1.67;;;;;;;;;;5070548;28;20033;-64
2023/09/04 12:50:51;;;;;;;2.40;1.48;;;;;;;;;;5070080;28;20398;-64
2023/09/04 12:53:17;;;;;;;2.80;1.52;;;;;;;;;;5098817;22;20043;-63
2023/09/04 12:55:43;;;;;;;2.95;1.50;;;;;;;;;;5094476;28;20024;-63
2023/09/04 12:58:11;;;;;;;2.58;1.30;;;;;;;;;;5090645;28;20044;-63
2023/09/04 13:00:37;;;;;;;2.75;1.42;;;;;;;;;;5095340;28;20073;-62
2023/09/04 13:03:03;;;;;;;2.55;1.45;;;;;;;;;;5080673;28;20036;-63
2023/09/04 13:05:30;;;;;;;3.85;1.52;;;;;;;;;;5086884;28;20130;-63
2023/09/04 13:07:56;;;;;;;1.80;1.40;;;;;;;;;;5089146;28;20032;-63
2023/09/04 13:10:22;;;;;;;1.88;1.30;;;;;;;;;;5083713;28;20067;-63
2023/09/04 13:12:48;;;;;;;1.27;1.17;;;;;;;;;;5083506;28;20397;-63
2023/09/04 13:15:14;;;;;;;1.58;1.13;;;;;;;;;;5089668;28;20097;-63
2023/09/04 13:17:43;;;;;;;2.55;1.45;;;;;;;;;;5094653;28;20040;-64
2023/09/04 13:20:10;;;;;;;3.03;1.30;;;;;;;;;;5091735;28;20417;-63
2023/09/04 13:22:37;;;;;;;2.72;1.42;;;;;;;;;;5088729;28;20076;-64
2023/09/04 13:25:03;;;;;;;3.03;1.40;;;;;;;;;;5092971;28;20065;-64
2023/09/04 13:27:29;;;;;;;2.50;1.40;;;;;;;;;;5084836;28;20067;-63
2023/09/04 13:29:55;;;;;;;2.25;1.25;;;;;;;;;;5095171;28;20044;-63
2023/09/04 13:32:21;;;;;;;3.13;1.20;;;;;;;;;;5092339;28;20258;-63
2023/09/04 13:34:47;;;;;;;3.63;1.30;;;;;;;;;;5089294;28;20044;-63
2023/09/04 13:37:14;;;;;;;1.95;1.10;;;;;;;;;;5091119;28;20068;-64
2023/09/04 13:39:40;;;;;;;6.53;2.22;;;;;;;;;;5085841;28;20050;-64
2023/09/04 13:42:06;;;;;;;7.25;3.00;;;;;;;;;;5087401;28;20040;-64
2023/09/04 13:44:31;;;;;;;2.50;1.45;;;;;;;;;;5089609;28;20520;-64
2023/09/04 13:46:57;;;;;;;2.47;1.48;;;;;;;;;;5086926;28;20032;-64
2023/09/04 13:49:23;;;;;;;2.95;1.25;;;;;;;;;;5092143;28;20043;-64
2023/09/04 13:51:49;;;;;;;2.90;1.50;;;;;;;;;;5092975;28;20072;-63
2023/09/04 13:54:15;;;;;;;2.17;1.40;;;;;;;;;;5086005;28;20040;-63
2023/09/04 13:56:45;;;;;;;2.42;1.48;;;;;;;;;;5085243;28;20040;-63
2023/09/04 13:59:11;;;;;;;2.03;1.23;;;;;;;;;;5092850;28;20040;-63
2023/09/04 14:01:37;;;;;;;2.70;1.30;;;;;;;;;;5092831;28;20105;-63
2023/09/04 14:04:05;;;;;;;1.48;1.08;;;;;;;;;;5092405;28;20119;-63
2023/09/04 14:06:31;;;;;;;1.90;1.40;;;;;;;;;;5094069;28;20032;-63
2023/09/04 14:08:57;;;;;;;2.33;1.45;;;;;;;;;;5090552;28;20034;-63
2023/09/04 14:11:23;;;;;;;2.40;1.17;;;;;;;;;;5082040;28;20082;-63
2023/09/04 14:13:50;;;;;;;2.22;1.52;;;;;;;;;;5091171;28;20040;-63
2023/09/04 14:16:16;;;;;;;1.60;1.27;;;;;;;;;;5084738;28;20063;-63
2023/09/04 14:18:42;;;;;;;2.53;1.40;;;;;;;;;;5084521;28;20032;-63
2023/09/04 14:21:08;;;;;;;4.15;1.45;;;;;;;;;;5083392;28;20043;-64
2023/09/04 14:23:34;;;;;;;3.10;1.45;;;;;;;;;;5086916;28;20383;-64
2023/09/04 14:26:00;;;;;;;2.63;1.10;;;;;;;;;;5086046;28;20046;-63
2023/09/04 14:28:25;;;;;;;1.35;1.13;;;;;;;;;;5088725;28;20036;-63
2023/09/04 14:30:52;;;;;;;1.90;1.55;;;;;;;;;;5088785;28;20037;-63
2023/09/04 14:33:17;;;;;;;2.38;1.27;;;;;;;;;;5084648;28;20070;-63
2023/09/04 14:36:05;;;;;;;2.60;1.40;;;;;;;;;;5090433;28;20409;-64
2023/09/04 14:38:34;;;;;;;2.78;1.20;;;;;;;;;;5091349;28;20387;-63